Hovedside
METAR-TAF:

METAR-TAF

Lufthavner :

Tromsø lufthavn. Langnes

Tromsø, Norge

breddegrad: 69-41N, lengdegrad: 018-55E, høyde over havet: 1 m

Gjeldene værobservasjon

Denne rapporten ble laget for 28 minutter siden, klokken 01:50 UTC
Vind 10 kt fra Nord-nordøst
Temperatur 8°C
Luftfuktighet 87%
Trykk 1014 hPa
Sikt 10 km eller mer

METAR: ENTC 140150Z AUTO 02010KT 9999 NCD 08/06 Q1014 RMK WIND 2600FT 15003KT

Tid: 04:18 (02:18 UTC)

Varsel

Denne rapporten ble laget for 3 timer og 18 minutter siden, klokken 23:00 UTC
Varsel gyldig fra 14. klokken 00 UTC til 14. klokken 24 UTC
Vind 9 kt fra Nord-nordøst
Sikt 10 km eller mer
Få skyer i en høyde av 1800 ft
Spredte skyer i en høyde av 3000 ft
Sannsynlighet 30%
fra 14. klokken 04 UTC til 14. klokken 08 UTC
Brutte skyer i en høyde av 1200 ft
Midlertidig
fra 14. klokken 12 UTC til 14. klokken 20 UTC
Få skyer i en høyde av 3000 ft, Bygeskyer.

TAF: ENTC 132300Z 1400/1424 03009KT 9999 FEW018 SCT030 PROB30 1404/1408 BKN012 TEMPO 1412/1420 FEW030CB

Værobservasjoner og værvarsel for over 4000 flyplasser (METAR- og TAF-rapporter).

Tilgjengelige stasjoner er representert av de røde og gule prikkene på kartet.

Hold musepekeren over prikken for å se navnet på stasjonen.

Klikk så for å se værobservasjoner og -varsler.

For å forandre kartet kan du klikke på den grønne knappen med svart kryss for å zoome inn, på den grønne knappen med strek for å zoome ut, eller på de grønne pilene for å se tilstøtende kart.


METAR-TAF: